Time;durP1;ratioP1;P1;durP2;ratioP2;P2;SDS_P1;SDS_P2;PMS_P1;PMS_P2;Temp;Humidity;BMP_temperature;BMP_pressure;BME280_temperature;BME280_humidity;BME280_pressure;Samples;Min_cycle;Max_cycle;Signal;HPM_P1;HPM_P2
2022/02/17 00:00:35;;;;;;;57.47;2.40;;;;;;;;;;5083513;28;20847;-72
2022/02/17 00:03:02;;;;;;;57.70;2.37;;;;;;;;;;5092905;28;20446;-70
2022/02/17 00:05:29;;;;;;;57.57;2.43;;;;;;;;;;5092928;28;20553;-70
2022/02/17 00:07:57;;;;;;;57.73;2.47;;;;;;;;;;5092386;28;20443;-72
2022/02/17 00:10:25;;;;;;;57.70;2.33;;;;;;;;;;5092834;28;20451;-71
2022/02/17 00:12:52;;;;;;;58.00;2.40;;;;;;;;;;5092595;28;20488;-70
2022/02/17 00:15:21;;;;;;;57.17;2.20;;;;;;;;;;5092358;28;20899;-70
2022/02/17 00:17:48;;;;;;;57.57;2.30;;;;;;;;;;5092443;28;20449;-70
2022/02/17 00:20:15;;;;;;;57.90;2.20;;;;;;;;;;5092376;28;20446;-70
2022/02/17 00:22:42;;;;;;;59.27;2.43;;;;;;;;;;5092255;28;20538;-70
2022/02/17 00:25:10;;;;;;;60.27;2.40;;;;;;;;;;5092394;28;20469;-70
2022/02/17 00:27:38;;;;;;;57.70;2.23;;;;;;;;;;5091864;28;20709;-70
2022/02/17 00:30:06;;;;;;;57.57;2.07;;;;;;;;;;5092143;28;20458;-70
2022/02/17 00:32:34;;;;;;;57.60;2.40;;;;;;;;;;5076145;28;20534;-70
2022/02/17 00:35:01;;;;;;;57.57;2.20;;;;;;;;;;5071917;28;21066;-71
2022/02/17 00:37:28;;;;;;;57.63;2.60;;;;;;;;;;5071742;28;20539;-71
2022/02/17 00:39:57;;;;;;;57.70;2.30;;;;;;;;;;5071880;28;20447;-71
2022/02/17 00:42:24;;;;;;;57.90;2.23;;;;;;;;;;5071465;28;20538;-71
2022/02/17 00:44:52;;;;;;;57.57;2.40;;;;;;;;;;5072233;28;20550;-71
2022/02/17 00:47:19;;;;;;;68.13;2.50;;;;;;;;;;5071339;28;20502;-70
2022/02/17 00:49:48;;;;;;;57.80;2.40;;;;;;;;;;5071979;28;20463;-71
2022/02/17 00:52:16;;;;;;;58.50;2.30;;;;;;;;;;5071604;28;20539;-71
2022/02/17 00:54:43;;;;;;;57.67;2.40;;;;;;;;;;5071544;28;20487;-71
2022/02/17 00:57:10;;;;;;;57.67;2.30;;;;;;;;;;5071341;28;20530;-72
2022/02/17 00:59:37;;;;;;;57.77;2.40;;;;;;;;;;5071463;28;21018;-72
2022/02/17 01:02:05;;;;;;;56.87;2.20;;;;;;;;;;5071474;28;20898;-71
2022/02/17 01:04:32;;;;;;;57.50;2.30;;;;;;;;;;5070555;28;20547;-71
2022/02/17 01:07:00;;;;;;;57.57;2.20;;;;;;;;;;5071952;28;20447;-71
2022/02/17 01:09:27;;;;;;;58.70;2.30;;;;;;;;;;5071485;28;20497;-71
2022/02/17 01:11:55;;;;;;;57.80;2.50;;;;;;;;;;5071991;28;20483;-71
2022/02/17 01:14:22;;;;;;;57.67;2.30;;;;;;;;;;5071862;28;20488;-71
2022/02/17 01:16:49;;;;;;;57.53;2.40;;;;;;;;;;5072010;28;20534;-71
2022/02/17 01:19:16;;;;;;;57.80;2.50;;;;;;;;;;5071470;28;20454;-70
2022/02/17 01:21:44;;;;;;;57.87;2.70;;;;;;;;;;5071721;28;20543;-70
2022/02/17 01:24:13;;;;;;;58.13;2.50;;;;;;;;;;5072182;28;20478;-71
2022/02/17 01:26:40;;;;;;;57.60;2.30;;;;;;;;;;5071881;28;20447;-70
2022/02/17 01:29:07;;;;;;;57.80;2.60;;;;;;;;;;5071451;28;20463;-71
2022/02/17 01:31:34;;;;;;;57.87;2.50;;;;;;;;;;5071779;28;20482;-68
2022/02/17 01:34:01;;;;;;;57.90;2.40;;;;;;;;;;5071530;28;20482;-70
2022/02/17 01:36:28;;;;;;;57.60;2.50;;;;;;;;;;5071455;28;20841;-70
2022/02/17 01:38:56;;;;;;;60.97;2.43;;;;;;;;;;5071568;28;20476;-70
2022/02/17 01:41:25;;;;;;;60.37;2.50;;;;;;;;;;5071572;28;20557;-70
2022/02/17 01:43:52;;;;;;;57.73;2.40;;;;;;;;;;5071570;28;20494;-69
2022/02/17 01:46:32;;;;;;;57.63;2.47;;;;;;;;;;5071644;28;20451;-70
2022/02/17 01:49:00;;;;;;;57.57;2.30;;;;;;;;;;5071209;28;20455;-70
2022/02/17 01:51:27;;;;;;;57.97;2.80;;;;;;;;;;5071609;28;20455;-70
2022/02/17 01:53:54;;;;;;;57.80;2.33;;;;;;;;;;5071449;28;20486;-70
2022/02/17 01:56:21;;;;;;;57.83;2.50;;;;;;;;;;5071328;28;20451;-72
2022/02/17 01:58:50;;;;;;;57.87;2.50;;;;;;;;;;5071382;28;20447;-71
2022/02/17 02:01:17;;;;;;;57.73;2.47;;;;;;;;;;5071374;28;20443;-71
2022/02/17 02:03:44;;;;;;;57.90;2.50;;;;;;;;;;5073866;28;20470;-71
2022/02/17 02:06:12;;;;;;;57.67;2.27;;;;;;;;;;5075360;28;20442;-72
2022/02/17 02:08:39;;;;;;;57.97;2.40;;;;;;;;;;5075153;28;20455;-71
2022/02/17 02:11:07;;;;;;;58.50;2.53;;;;;;;;;;5074982;28;20550;-71
2022/02/17 02:13:36;;;;;;;58.93;2.70;;;;;;;;;;5075144;28;20847;-70
2022/02/17 02:16:06;;;;;;;58.60;2.80;;;;;;;;;;5074992;28;20455;-71
2022/02/17 02:18:34;;;;;;;57.97;2.70;;;;;;;;;;5074960;28;20950;-71
2022/02/17 02:21:03;;;;;;;58.10;2.40;;;;;;;;;;5074817;28;20959;-70
2022/02/17 02:23:30;;;;;;;57.87;2.70;;;;;;;;;;5074903;28;20443;-71
2022/02/17 02:25:58;;;;;;;57.63;2.70;;;;;;;;;;5074836;28;20805;-71
2022/02/17 02:28:25;;;;;;;58.47;2.60;;;;;;;;;;5074459;28;20451;-71
2022/02/17 02:30:53;;;;;;;57.80;2.60;;;;;;;;;;5074749;28;20542;-72
2022/02/17 02:33:20;;;;;;;57.63;2.60;;;;;;;;;;5074628;28;20461;-71
2022/02/17 02:35:49;;;;;;;59.70;2.60;;;;;;;;;;5074948;28;20449;-71
2022/02/17 02:38:19;;;;;;;57.90;2.40;;;;;;;;;;5074597;28;20520;-71
2022/02/17 02:40:47;;;;;;;58.00;2.70;;;;;;;;;;5074722;28;20451;-72
2022/02/17 02:43:14;;;;;;;58.33;2.60;;;;;;;;;;5074448;28;20490;-71
2022/02/17 02:45:43;;;;;;;57.73;2.70;;;;;;;;;;5074388;28;20550;-71
2022/02/17 02:48:11;;;;;;;57.87;2.60;;;;;;;;;;5072960;28;20466;-71
2022/02/17 02:50:39;;;;;;;57.40;2.60;;;;;;;;;;5074465;28;20447;-71
2022/02/17 02:53:07;;;;;;;57.57;2.40;;;;;;;;;;5074373;28;20478;-71
2022/02/17 02:55:35;;;;;;;57.87;2.40;;;;;;;;;;5074546;28;20483;-71
2022/02/17 02:58:03;;;;;;;58.07;2.47;;;;;;;;;;5074357;28;20451;-70
2022/02/17 03:00:30;;;;;;;57.67;2.40;;;;;;;;;;5074410;28;20493;-71
2022/02/17 03:02:57;;;;;;;57.77;2.43;;;;;;;;;;5074344;28;20455;-70
2022/02/17 03:05:24;;;;;;;57.27;2.53;;;;;;;;;;5074214;28;20456;-71
2022/02/17 03:07:52;;;;;;;58.10;2.53;;;;;;;;;;5073935;28;20705;-71
2022/02/17 03:10:19;;;;;;;57.43;2.60;;;;;;;;;;5074060;28;20459;-70
2022/02/17 03:12:48;;;;;;;57.63;2.67;;;;;;;;;;5074076;28;20451;-70
2022/02/17 03:15:15;;;;;;;57.97;2.50;;;;;;;;;;5073831;28;21014;-70
2022/02/17 03:17:43;;;;;;;57.57;2.50;;;;;;;;;;5073833;28;20455;-71
2022/02/17 03:20:10;;;;;;;57.90;2.40;;;;;;;;;;5073975;28;20459;-72
2022/02/17 03:22:38;;;;;;;57.80;2.70;;;;;;;;;;5074448;28;20818;-71
2022/02/17 03:25:05;;;;;;;58.40;2.60;;;;;;;;;;5073916;28;20474;-71
2022/02/17 03:27:32;;;;;;;57.37;2.40;;;;;;;;;;5073449;28;20451;-71
2022/02/17 03:30:01;;;;;;;57.70;2.40;;;;;;;;;;5073873;28;20832;-71
2022/02/17 03:32:28;;;;;;;58.20;2.50;;;;;;;;;;5073785;28;20453;-72
2022/02/17 03:34:55;;;;;;;58.60;2.70;;;;;;;;;;5073355;28;20581;-71
2022/02/17 03:37:23;;;;;;;57.60;2.60;;;;;;;;;;5073349;28;20978;-71
2022/02/17 03:39:50;;;;;;;57.80;2.40;;;;;;;;;;5073824;28;20541;-71
2022/02/17 03:42:17;;;;;;;57.77;2.40;;;;;;;;;;5073666;28;20451;-71
2022/02/17 03:44:44;;;;;;;58.00;2.40;;;;;;;;;;5073403;28;20471;-71
2022/02/17 03:47:13;;;;;;;57.90;2.60;;;;;;;;;;5073139;28;20546;-71
2022/02/17 03:49:40;;;;;;;57.60;2.40;;;;;;;;;;5073586;28;20467;-71
2022/02/17 03:52:07;;;;;;;57.77;2.40;;;;;;;;;;5073428;28;20888;-71
2022/02/17 03:54:34;;;;;;;57.57;2.40;;;;;;;;;;5073339;28;20567;-71
2022/02/17 03:57:01;;;;;;;58.73;2.63;;;;;;;;;;5073193;28;20451;-71
2022/02/17 03:59:29;;;;;;;57.70;2.40;;;;;;;;;;5072904;28;20447;-72
2022/02/17 04:01:56;;;;;;;57.77;2.50;;;;;;;;;;5073072;28;20457;-71
2022/02/17 04:04:24;;;;;;;57.67;2.60;;;;;;;;;;5073189;28;20467;-71
2022/02/17 04:06:51;;;;;;;60.33;2.47;;;;;;;;;;5073157;28;20541;-71
2022/02/17 04:09:19;;;;;;;57.90;2.50;;;;;;;;;;5072794;28;20795;-71
2022/02/17 04:11:46;;;;;;;57.70;2.50;;;;;;;;;;5072989;28;20542;-71
2022/02/17 04:14:13;;;;;;;57.80;2.40;;;;;;;;;;5072592;28;20991;-71
2022/02/17 04:16:40;;;;;;;57.63;2.60;;;;;;;;;;5072793;28;20546;-71
2022/02/17 04:19:08;;;;;;;57.57;2.50;;;;;;;;;;5072663;28;20447;-72
2022/02/17 04:21:36;;;;;;;57.60;2.40;;;;;;;;;;5072684;28;20444;-71
2022/02/17 04:24:04;;;;;;;57.43;2.33;;;;;;;;;;5072807;28;20471;-72
2022/02/17 04:26:31;;;;;;;57.70;2.50;;;;;;;;;;5071888;28;20962;-71
2022/02/17 04:28:58;;;;;;;57.90;2.50;;;;;;;;;;5072046;28;20464;-71
2022/02/17 04:31:27;;;;;;;57.60;2.60;;;;;;;;;;5072738;28;20451;-72
2022/02/17 04:33:54;;;;;;;57.60;2.40;;;;;;;;;;5072605;28;20479;-71
2022/02/17 04:36:21;;;;;;;57.80;2.50;;;;;;;;;;5072600;28;20838;-71
2022/02/17 04:38:50;;;;;;;58.30;2.30;;;;;;;;;;5072152;28;20943;-71
2022/02/17 04:44:02;;;;;;;57.67;2.43;;;;;;;;;;5072397;28;20954;-70
2022/02/17 04:46:29;;;;;;;57.57;2.60;;;;;;;;;;5072570;28;20538;-70
2022/02/17 04:48:56;;;;;;;57.67;2.60;;;;;;;;;;5072024;28;20455;-71
2022/02/17 04:51:23;;;;;;;57.57;2.50;;;;;;;;;;5072177;28;20546;-71
2022/02/17 04:53:52;;;;;;;57.60;2.40;;;;;;;;;;5072021;28;20463;-71
2022/02/17 04:56:19;;;;;;;57.73;2.37;;;;;;;;;;5072349;28;20450;-71
2022/02/17 04:58:46;;;;;;;57.77;2.70;;;;;;;;;;5072269;28;20443;-71
2022/02/17 05:01:13;;;;;;;57.60;2.47;;;;;;;;;;5072232;28;20453;-71
2022/02/17 05:03:40;;;;;;;57.97;2.50;;;;;;;;;;5071995;28;20534;-72
2022/02/17 05:06:07;;;;;;;57.60;2.70;;;;;;;;;;5072013;28;20447;-71
2022/02/17 05:08:35;;;;;;;57.97;2.53;;;;;;;;;;5071577;28;20955;-71
2022/02/17 05:11:03;;;;;;;57.77;2.47;;;;;;;;;;5072145;28;20442;-71
2022/02/17 05:13:30;;;;;;;59.60;2.40;;;;;;;;;;5071918;28;20443;-71
2022/02/17 05:15:57;;;;;;;58.73;2.50;;;;;;;;;;5071894;28;20479;-72
2022/02/17 05:18:25;;;;;;;57.77;2.70;;;;;;;;;;5071775;28;20627;-71
2022/02/17 05:20:52;;;;;;;57.70;2.47;;;;;;;;;;5071911;28;20875;-71
2022/02/17 05:23:19;;;;;;;57.37;2.50;;;;;;;;;;5071825;28;20875;-72
2022/02/17 05:25:47;;;;;;;57.60;2.60;;;;;;;;;;5071654;28;20463;-73
2022/02/17 05:28:16;;;;;;;57.80;2.47;;;;;;;;;;5071571;28;20467;-70
2022/02/17 05:30:44;;;;;;;57.63;2.30;;;;;;;;;;5071903;28;20451;-71
2022/02/17 05:33:12;;;;;;;57.57;2.50;;;;;;;;;;5071635;28;20446;-72
2022/02/17 05:35:39;;;;;;;57.57;2.43;;;;;;;;;;5071583;28;20577;-72
2022/02/17 05:38:06;;;;;;;57.90;2.60;;;;;;;;;;5077284;28;20487;-70
2022/02/17 05:40:34;;;;;;;57.67;2.50;;;;;;;;;;5078404;28;20542;-71
2022/02/17 05:43:01;;;;;;;57.60;2.40;;;;;;;;;;5078308;28;20931;-70
2022/02/17 05:45:30;;;;;;;57.73;2.53;;;;;;;;;;5078157;28;20459;-70
2022/02/17 05:47:58;;;;;;;59.90;2.50;;;;;;;;;;5077964;28;20554;-74
2022/02/17 05:50:26;;;;;;;58.20;2.90;;;;;;;;;;5078049;28;20821;-72
2022/02/17 05:52:53;;;;;;;57.80;2.87;;;;;;;;;;5078317;28;20453;-70
2022/02/17 05:55:20;;;;;;;62.80;3.83;;;;;;;;;;5078101;28;20482;-71
2022/02/17 05:57:47;;;;;;;58.03;2.90;;;;;;;;;;5077831;28;20456;-70
2022/02/17 06:00:15;;;;;;;60.80;3.60;;;;;;;;;;5078014;28;20447;-71
2022/02/17 06:02:44;;;;;;;61.67;3.60;;;;;;;;;;5077903;28;20533;-71
2022/02/17 06:05:11;;;;;;;60.00;3.40;;;;;;;;;;5078201;28;20831;-70
2022/02/17 06:07:39;;;;;;;60.40;3.30;;;;;;;;;;5077684;28;20943;-70
2022/02/17 06:10:06;;;;;;;62.03;3.40;;;;;;;;;;5078274;28;20449;-70
2022/02/17 06:12:34;;;;;;;61.13;3.80;;;;;;;;;;5078465;28;20459;-70
2022/02/17 06:15:01;;;;;;;62.00;3.57;;;;;;;;;;5078330;28;20986;-71
2022/02/17 06:17:28;;;;;;;62.00;3.70;;;;;;;;;;5077580;28;20443;-71
2022/02/17 06:19:56;;;;;;;60.57;3.97;;;;;;;;;;5078340;28;20454;-71
2022/02/17 06:22:23;;;;;;;59.73;3.20;;;;;;;;;;5077949;28;20838;-70
2022/02/17 06:24:53;;;;;;;61.07;3.60;;;;;;;;;;5077956;28;20473;-71
2022/02/17 06:27:20;;;;;;;60.20;3.33;;;;;;;;;;5077572;28;20454;-71
2022/02/17 06:29:47;;;;;;;66.30;3.80;;;;;;;;;;5077668;28;20462;-71
2022/02/17 06:32:14;;;;;;;61.47;4.47;;;;;;;;;;5078013;28;20449;-73
2022/02/17 06:34:41;;;;;;;58.90;3.17;;;;;;;;;;5077530;28;20558;-70
2022/02/17 06:37:10;;;;;;;61.50;3.27;;;;;;;;;;5077778;28;20478;-70
2022/02/17 06:39:37;;;;;;;61.50;3.77;;;;;;;;;;5077781;28;20452;-72
2022/02/17 06:42:04;;;;;;;60.77;3.47;;;;;;;;;;5078088;28;20963;-71
2022/02/17 06:44:32;;;;;;;59.83;3.13;;;;;;;;;;5077414;28;20477;-71
2022/02/17 06:46:59;;;;;;;60.60;3.27;;;;;;;;;;5078030;28;20451;-70
2022/02/17 06:49:28;;;;;;;60.07;3.30;;;;;;;;;;5074070;28;20465;-71
2022/02/17 06:51:55;;;;;;;59.90;3.30;;;;;;;;;;5074593;28;20803;-71
2022/02/17 06:54:23;;;;;;;62.93;4.40;;;;;;;;;;5074376;28;20469;-70
2022/02/17 06:56:51;;;;;;;60.20;3.33;;;;;;;;;;5074357;28;20497;-72
2022/02/17 06:59:19;;;;;;;67.17;3.50;;;;;;;;;;5074172;28;20451;-73
2022/02/17 07:01:46;;;;;;;62.30;3.40;;;;;;;;;;5074573;28;20446;-73
2022/02/17 07:04:13;;;;;;;61.20;3.83;;;;;;;;;;5074188;28;20837;-72
2022/02/17 07:06:42;;;;;;;65.30;4.03;;;;;;;;;;5074150;28;20534;-72
2022/02/17 07:09:09;;;;;;;63.00;3.57;;;;;;;;;;5073816;28;20446;-72
2022/02/17 07:11:38;;;;;;;61.27;3.80;;;;;;;;;;5074162;28;20553;-72
2022/02/17 07:14:05;;;;;;;60.50;3.47;;;;;;;;;;5074577;28;20486;-72
2022/02/17 07:16:33;;;;;;;60.67;3.13;;;;;;;;;;5073961;28;20490;-73
2022/02/17 07:19:01;;;;;;;62.17;3.50;;;;;;;;;;5073684;28;20447;-73
2022/02/17 07:21:28;;;;;;;63.43;3.87;;;;;;;;;;5073911;28;20455;-72
2022/02/17 07:23:55;;;;;;;66.60;3.97;;;;;;;;;;5073683;28;20833;-72
2022/02/17 07:26:22;;;;;;;60.93;3.23;;;;;;;;;;5073873;28;20725;-72
2022/02/17 07:28:50;;;;;;;67.50;3.97;;;;;;;;;;5073559;28;20838;-70
2022/02/17 07:31:17;;;;;;;62.80;3.67;;;;;;;;;;5073790;28;20944;-72
2022/02/17 07:33:45;;;;;;;62.50;4.00;;;;;;;;;;5073555;28;20578;-72
2022/02/17 07:36:12;;;;;;;62.60;4.10;;;;;;;;;;5073590;28;20483;-72
2022/02/17 07:38:39;;;;;;;66.27;3.77;;;;;;;;;;5073142;28;20453;-72
2022/02/17 07:41:06;;;;;;;65.60;4.40;;;;;;;;;;5073818;28;20447;-71
2022/02/17 07:43:34;;;;;;;61.87;3.60;;;;;;;;;;5071143;28;20949;-70
2022/02/17 07:46:03;;;;;;;64.53;4.10;;;;;;;;;;5089333;28;20450;-70
2022/02/17 07:48:30;;;;;;;66.93;3.87;;;;;;;;;;5092762;28;20549;-72
2022/02/17 07:50:57;;;;;;;61.50;3.40;;;;;;;;;;5093035;28;20816;-69
2022/02/17 07:53:24;;;;;;;64.97;3.90;;;;;;;;;;5092696;28;20954;-69
2022/02/17 07:55:51;;;;;;;68.17;3.93;;;;;;;;;;5093136;28;20496;-70
2022/02/17 07:58:19;;;;;;;63.20;3.77;;;;;;;;;;5092493;28;20529;-69
2022/02/17 08:00:46;;;;;;;66.67;3.40;;;;;;;;;;5091792;28;20828;-70
2022/02/17 08:03:14;;;;;;;62.20;3.97;;;;;;;;;;5092603;28;20446;-70
2022/02/17 08:05:42;;;;;;;61.13;2.90;;;;;;;;;;5092670;28;20548;-70
2022/02/17 08:08:09;;;;;;;60.43;3.03;;;;;;;;;;5092660;28;20879;-69
2022/02/17 08:10:37;;;;;;;66.97;3.70;;;;;;;;;;5092847;28;20839;-70
2022/02/17 08:13:04;;;;;;;68.47;4.40;;;;;;;;;;5091678;28;20450;-71
2022/02/17 08:15:31;;;;;;;66.53;3.60;;;;;;;;;;5092675;28;21244;-71
2022/02/17 08:17:59;;;;;;;64.37;3.70;;;;;;;;;;5092275;28;20465;-72
2022/02/17 08:20:28;;;;;;;62.67;3.97;;;;;;;;;;5092578;28;20450;-72
2022/02/17 08:22:57;;;;;;;64.13;3.70;;;;;;;;;;5092411;28;20450;-71
2022/02/17 08:25:24;;;;;;;69.13;3.30;;;;;;;;;;5092205;28;20477;-72
2022/02/17 08:27:52;;;;;;;63.57;4.47;;;;;;;;;;5092107;28;20473;-72
2022/02/17 08:30:20;;;;;;;62.17;3.87;;;;;;;;;;5092294;28;20541;-72
2022/02/17 08:32:47;;;;;;;60.80;2.93;;;;;;;;;;5092299;28;20817;-79
2022/02/17 08:35:15;;;;;;;61.70;3.30;;;;;;;;;;5092031;28;20884;-73
2022/02/17 08:37:44;;;;;;;62.55;3.33;;;;;;;;;;5091881;28;20430;-73
2022/02/17 08:40:12;;;;;;;63.17;3.03;;;;;;;;;;5091947;28;20589;-72
2022/02/17 08:42:39;;;;;;;60.33;3.93;;;;;;;;;;5091973;28;20451;-72
2022/02/17 08:45:07;;;;;;;61.00;3.50;;;;;;;;;;5091873;28;20474;-75
2022/02/17 08:47:35;;;;;;;64.10;4.30;;;;;;;;;;5092261;28;20450;-75
2022/02/17 08:50:02;;;;;;;61.67;3.70;;;;;;;;;;5092479;28;20454;-72
2022/02/17 08:52:29;;;;;;;66.00;3.33;;;;;;;;;;5092326;28;20451;-73
2022/02/17 08:54:58;;;;;;;62.33;3.70;;;;;;;;;;5092291;28;21054;-75
2022/02/17 08:57:25;;;;;;;64.13;4.40;;;;;;;;;;5091547;28;20574;-75
2022/02/17 08:59:52;;;;;;;69.47;4.50;;;;;;;;;;5091664;28;20465;-74
2022/02/17 09:02:19;;;;;;;63.50;3.60;;;;;;;;;;5091661;28;20446;-80
2022/02/17 09:04:46;;;;;;;61.97;3.63;;;;;;;;;;5091810;28;20459;-76
2022/02/17 09:07:14;;;;;;;65.67;3.43;;;;;;;;;;5091647;28;20886;-78
2022/02/17 09:09:41;;;;;;;62.07;3.60;;;;;;;;;;5092043;28;20456;-76
2022/02/17 09:12:10;;;;;;;60.17;3.73;;;;;;;;;;5092502;28;20818;-74
2022/02/17 09:14:37;;;;;;;63.00;3.97;;;;;;;;;;5092358;28;20546;-75
2022/02/17 09:17:04;;;;;;;66.97;3.63;;;;;;;;;;5091569;28;20577;-73
2022/02/17 09:19:34;;;;;;;66.63;5.00;;;;;;;;;;5091807;28;20640;-77
2022/02/17 09:22:01;;;;;;;63.40;3.50;;;;;;;;;;5091575;28;20457;-74
2022/02/17 09:24:28;;;;;;;67.27;4.70;;;;;;;;;;5091400;28;20508;-76
2022/02/17 09:26:55;;;;;;;62.70;3.83;;;;;;;;;;5091315;28;20452;-73
2022/02/17 09:29:24;;;;;;;65.93;3.80;;;;;;;;;;5091348;28;20562;-73
2022/02/17 09:31:51;;;;;;;67.30;4.83;;;;;;;;;;5092414;28;20454;-72
2022/02/17 09:34:18;;;;;;;64.50;4.83;;;;;;;;;;5091914;28;20466;-75
2022/02/17 09:36:45;;;;;;;65.70;3.90;;;;;;;;;;5091516;28;20568;-74
2022/02/17 09:39:12;;;;;;;66.40;4.13;;;;;;;;;;5091344;28;20896;-76
2022/02/17 09:41:39;;;;;;;66.23;4.07;;;;;;;;;;5091115;28;20454;-74
2022/02/17 09:44:09;;;;;;;63.80;4.30;;;;;;;;;;5091296;28;20474;-73
2022/02/17 09:46:41;;;;;;;64.83;4.37;;;;;;;;;;5091270;28;20438;-72
2022/02/17 09:49:08;;;;;;;66.07;4.40;;;;;;;;;;5091287;28;20446;-70
2022/02/17 09:51:36;;;;;;;71.53;4.40;;;;;;;;;;5091627;28;20442;-71
2022/02/17 09:54:03;;;;;;;66.10;5.00;;;;;;;;;;5091288;28;20556;-72
2022/02/17 09:56:31;;;;;;;73.90;4.37;;;;;;;;;;5091534;28;20486;-73
2022/02/17 09:58:58;;;;;;;64.80;5.07;;;;;;;;;;5090921;28;20965;-72
2022/02/17 10:01:27;;;;;;;64.57;4.10;;;;;;;;;;5090823;28;20461;-75
2022/02/17 10:04:09;;;;;;;71.63;4.47;;;;;;;;;;5090995;28;20467;-74
2022/02/17 10:06:41;;;;;;;66.73;4.80;;;;;;;;;;5091178;28;20447;-72
2022/02/17 10:09:08;;;;;;;70.80;4.60;;;;;;;;;;5091052;28;20525;-72
2022/02/17 10:11:35;;;;;;;67.33;4.50;;;;;;;;;;5091624;28;20453;-71
2022/02/17 10:14:04;;;;;;;62.77;5.20;;;;;;;;;;5091380;28;20466;-72
2022/02/17 10:16:31;;;;;;;62.67;4.17;;;;;;;;;;5091294;28;20479;-70
2022/02/17 10:19:11;;;;;;;65.30;3.80;;;;;;;;;;5090469;28;20969;-73
2022/02/17 10:21:42;;;;;;;68.33;5.20;;;;;;;;;;5090681;28;20443;-72
2022/02/17 10:24:09;;;;;;;73.77;5.17;;;;;;;;;;5092659;28;20473;-71
2022/02/17 10:26:36;;;;;;;70.07;4.30;;;;;;;;;;5094795;28;20584;-72
2022/02/17 10:29:06;;;;;;;68.73;5.17;;;;;;;;;;5094288;28;20541;-73
2022/02/17 10:31:35;;;;;;;63.40;4.70;;;;;;;;;;5095046;28;20450;-69
2022/02/17 10:34:03;;;;;;;69.20;5.27;;;;;;;;;;5095447;28;20883;-70
2022/02/17 10:36:35;;;;;;;65.27;4.90;;;;;;;;;;5094890;28;20917;-70
2022/02/17 10:39:14;;;;;;;66.53;4.07;;;;;;;;;;5094427;28;20453;-69
2022/02/17 10:41:50;;;;;;;66.30;4.57;;;;;;;;;;5094320;28;20450;-71
2022/02/17 10:44:18;;;;;;;71.97;4.23;;;;;;;;;;5094616;28;20488;-70
2022/02/17 10:46:45;;;;;;;65.67;4.07;;;;;;;;;;5094663;28;20439;-70
2022/02/17 10:49:13;;;;;;;65.80;4.20;;;;;;;;;;5094230;28;20900;-69
2022/02/17 10:51:40;;;;;;;67.93;4.43;;;;;;;;;;5094772;28;20810;-71
2022/02/17 10:54:08;;;;;;;63.60;3.80;;;;;;;;;;5094548;28;20625;-70
2022/02/17 10:56:38;;;;;;;65.50;4.43;;;;;;;;;;5094276;28;20483;-71
2022/02/17 11:00:00;;;;;;;66.27;4.03;;;;;;;;;;5093879;28;20461;-71
2022/02/17 11:01:54;;;;;;;63.60;3.73;;;;;;;;;;5093707;28;20445;-71
2022/02/17 11:04:22;;;;;;;64.50;4.00;;;;;;;;;;5093847;28;20466;-73
2022/02/17 11:06:49;;;;;;;62.67;4.10;;;;;;;;;;5093749;28;21018;-70
2022/02/17 11:09:17;;;;;;;62.47;3.90;;;;;;;;;;5093544;28;20533;-71
2022/02/17 11:11:49;;;;;;;63.70;4.57;;;;;;;;;;5094556;28;20943;-69
2022/02/17 11:14:17;;;;;;;65.13;5.13;;;;;;;;;;5094189;28;20475;-70
2022/02/17 11:16:44;;;;;;;61.07;3.33;;;;;;;;;;5094269;28;20574;-72
2022/02/17 11:19:11;;;;;;;64.93;3.90;;;;;;;;;;5093381;28;20534;-71
2022/02/17 11:21:38;;;;;;;73.80;4.60;;;;;;;;;;5093706;28;20461;-69
2022/02/17 11:24:06;;;;;;;67.27;3.57;;;;;;;;;;5093764;28;20821;-70
2022/02/17 11:26:35;;;;;;;67.83;4.30;;;;;;;;;;5093701;28;20531;-72
2022/02/17 11:29:17;;;;;;;67.78;4.10;;;;;;;;;;5091901;28;20905;-69
2022/02/17 11:31:57;;;;;;;61.80;3.80;;;;;;;;;;5093721;28;20205;-73
2022/02/17 11:34:35;;;;;;;63.63;3.70;;;;;;;;;;5093752;28;20467;-73
2022/02/17 11:37:30;;;;;;;62.87;3.40;;;;;;;;;;5073704;28;20487;-71
2022/02/17 11:39:58;;;;;;;63.00;3.37;;;;;;;;;;5073296;28;20858;-72
2022/02/17 11:42:28;;;;;;;61.50;3.50;;;;;;;;;;5072992;28;20453;-72
2022/02/17 11:45:08;;;;;;;66.20;3.97;;;;;;;;;;5072967;28;20471;-70
2022/02/17 11:47:50;;;;;;;67.93;4.00;;;;;;;;;;5073028;28;20439;-72
2022/02/17 11:50:35;;;;;;;71.20;5.10;;;;;;;;;;5073221;28;20443;-71
2022/02/17 11:53:21;;;;;;;65.50;3.73;;;;;;;;;;5073938;28;20444;-71
2022/02/17 11:55:48;;;;;;;60.77;3.50;;;;;;;;;;5073679;28;20828;-71
2022/02/17 11:58:30;;;;;;;65.43;4.63;;;;;;;;;;5072673;28;20484;-72
2022/02/17 12:00:57;;;;;;;63.80;3.73;;;;;;;;;;5072599;28;20448;-73
2022/02/17 12:03:39;;;;;;;66.57;3.87;;;;;;;;;;5072801;28;20824;-72
2022/02/17 12:06:25;;;;;;;61.13;3.27;;;;;;;;;;5072332;28;20459;-71
2022/02/17 12:08:57;;;;;;;62.60;4.10;;;;;;;;;;5087246;28;20478;-72
2022/02/17 12:11:28;;;;;;;62.60;3.13;;;;;;;;;;5092727;28;20534;-72
2022/02/17 12:13:56;;;;;;;62.70;4.13;;;;;;;;;;5092943;28;20474;-72
2022/02/17 12:16:36;;;;;;;62.97;3.47;;;;;;;;;;5093203;28;20454;-71
2022/02/17 12:19:10;;;;;;;63.57;3.60;;;;;;;;;;5092370;28;20591;-70
2022/02/17 12:21:38;;;;;;;63.30;3.60;;;;;;;;;;5092489;28;20527;-72
2022/02/17 12:24:07;;;;;;;61.67;3.40;;;;;;;;;;5091944;28;20471;-73
2022/02/17 12:26:40;;;;;;;61.97;3.80;;;;;;;;;;5092647;28;20461;-71
2022/02/17 12:29:20;;;;;;;65.43;3.47;;;;;;;;;;5092271;28;20464;-71
2022/02/17 12:31:47;;;;;;;61.77;3.87;;;;;;;;;;5092489;28;20935;-72
2022/02/17 12:34:15;;;;;;;62.73;3.87;;;;;;;;;;5092502;28;20463;-72
2022/02/17 12:36:42;;;;;;;61.50;3.80;;;;;;;;;;5092629;28;20506;-72
2022/02/17 12:39:10;;;;;;;68.50;3.67;;;;;;;;;;5090030;28;20533;-71
2022/02/17 12:41:38;;;;;;;61.70;3.60;;;;;;;;;;5091957;28;20455;-72
2022/02/17 12:44:06;;;;;;;64.67;3.37;;;;;;;;;;5092048;28;20478;-72
2022/02/17 12:46:33;;;;;;;65.20;3.97;;;;;;;;;;5091285;28;20451;-72
2022/02/17 12:49:07;;;;;;;60.43;3.50;;;;;;;;;;5091624;28;20731;-72
2022/02/17 12:51:35;;;;;;;66.33;4.13;;;;;;;;;;5091976;28;20552;-72
2022/02/17 12:54:02;;;;;;;68.27;3.47;;;;;;;;;;5092189;28;20551;-73
2022/02/17 12:56:32;;;;;;;64.47;3.70;;;;;;;;;;5092177;28;20509;-72
2022/02/17 12:59:06;;;;;;;62.90;4.40;;;;;;;;;;5091935;28;20453;-72
2022/02/17 13:01:34;;;;;;;65.63;3.63;;;;;;;;;;5091718;28;20519;-74
2022/02/17 13:04:01;;;;;;;64.20;4.20;;;;;;;;;;5091794;28;20472;-72
2022/02/17 13:06:29;;;;;;;67.77;4.90;;;;;;;;;;5091753;28;20458;-72
2022/02/17 13:08:56;;;;;;;66.77;5.43;;;;;;;;;;5091498;28;20474;-73
2022/02/17 13:11:25;;;;;;;65.20;4.27;;;;;;;;;;5089745;28;20813;-72
2022/02/17 13:14:03;;;;;;;68.90;4.20;;;;;;;;;;5091489;28;20982;-74
2022/02/17 13:16:31;;;;;;;65.03;5.20;;;;;;;;;;5092138;28;20826;-72
2022/02/17 13:18:58;;;;;;;69.37;4.77;;;;;;;;;;5091616;28;20507;-73
2022/02/17 13:21:25;;;;;;;68.00;4.83;;;;;;;;;;5091444;28;20446;-73
2022/02/17 13:24:07;;;;;;;65.27;4.57;;;;;;;;;;5091367;28;20531;-73
2022/02/17 13:26:35;;;;;;;67.60;4.53;;;;;;;;;;5091219;28;20445;-73
2022/02/17 13:29:05;;;;;;;66.47;5.40;;;;;;;;;;5091528;28;20873;-74
2022/02/17 13:31:36;;;;;;;66.80;4.83;;;;;;;;;;5091769;28;20537;-74
2022/02/17 13:34:07;;;;;;;64.93;3.90;;;;;;;;;;5091388;28;20605;-74
2022/02/17 13:36:36;;;;;;;64.50;4.27;;;;;;;;;;5091891;28;20498;-73
2022/02/17 13:39:05;;;;;;;70.10;4.97;;;;;;;;;;5091159;28;20460;-73
2022/02/17 13:41:32;;;;;;;69.23;5.00;;;;;;;;;;5091501;28;20448;-73
2022/02/17 13:43:59;;;;;;;71.03;5.33;;;;;;;;;;5089106;28;20469;-73
2022/02/17 13:46:28;;;;;;;70.50;5.23;;;;;;;;;;5091722;28;20448;-73
2022/02/17 13:48:55;;;;;;;74.43;5.00;;;;;;;;;;5091087;28;20956;-73
2022/02/17 13:51:23;;;;;;;65.27;4.90;;;;;;;;;;5091550;28;21012;-74
2022/02/17 13:53:52;;;;;;;68.23;4.90;;;;;;;;;;5091408;28;20474;-74
2022/02/17 13:56:23;;;;;;;67.60;4.47;;;;;;;;;;5091650;28;20485;-73
2022/02/17 13:58:58;;;;;;;68.77;4.93;;;;;;;;;;5094409;28;20581;-73
2022/02/17 14:01:35;;;;;;;65.97;5.07;;;;;;;;;;5095760;28;20445;-73
2022/02/17 14:04:02;;;;;;;68.67;5.20;;;;;;;;;;5094985;28;20474;-72
2022/02/17 14:06:30;;;;;;;64.97;4.70;;;;;;;;;;5095469;28;20546;-73
2022/02/17 14:08:57;;;;;;;65.53;5.07;;;;;;;;;;5094917;28;20443;-73
2022/02/17 14:11:25;;;;;;;66.93;5.80;;;;;;;;;;5095411;28;20807;-73
2022/02/17 14:13:53;;;;;;;67.57;4.80;;;;;;;;;;5094885;28;20480;-71
2022/02/17 14:16:20;;;;;;;64.90;4.53;;;;;;;;;;5093504;28;20536;-73
2022/02/17 14:18:48;;;;;;;68.80;5.23;;;;;;;;;;5094884;28;21034;-73
2022/02/17 14:21:16;;;;;;;65.47;3.93;;;;;;;;;;5095165;28;20441;-72
2022/02/17 14:23:44;;;;;;;63.67;4.30;;;;;;;;;;5094571;28;20473;-73
2022/02/17 14:26:11;;;;;;;64.77;4.37;;;;;;;;;;5094720;28;20456;-73
2022/02/17 14:28:38;;;;;;;64.30;5.23;;;;;;;;;;5094334;28;20461;-74
2022/02/17 14:31:05;;;;;;;64.30;4.30;;;;;;;;;;5094334;28;20806;-73
2022/02/17 14:33:34;;;;;;;66.70;4.63;;;;;;;;;;5094487;28;20447;-74
2022/02/17 14:36:03;;;;;;;63.90;4.20;;;;;;;;;;5094845;28;20455;-74
2022/02/17 14:38:30;;;;;;;64.20;4.10;;;;;;;;;;5094400;28;20488;-73
2022/02/17 14:40:57;;;;;;;66.43;3.80;;;;;;;;;;5094858;28;20446;-73